Trat Airport
VTBO : now visible

Airfield :











YOU CAN JOIN US ON...

 
LOGIN :

Register | Disclaimer

   EN    FR    IT 

 









Legend :    VFR   Marginal VFR   IFR   Intensive IFR   Very Intensive IFR
Visi :
Ceiling :
>= 8 km
>= 3000ft
5 to 8 km
1000 to 3000 ft
1500m to 5 km
500 to 1000 ft
800 to 1500m
200 to 500 ft
< 800m
< 200 ft
Symbols :   Thunderstorms  Fog  Heavy snow  Heavy precipitations  Wind > 20 kt






- Airport Elevation : 105 ft


VTBO - Trat

CURRENT METAR :
  • 290400Z 21007KT 9999 FEW020 SCT100 32/27 Q1011

EXPIRED METARs :
  • 290300Z 24008KT 9999 FEW020 SCT100 31/27 Q1012
  • 290200Z 21006KT 8000 FEW020 SCT100 31/26 Q1011

TAF TAF VTBO
Valid from the 29 at 00:00 until the 30 at 00:00 UTC


282300Z 2900/2924 10005KT 4000 BR FEW020
BECMG 2901/2903 24008KT 8000 NSW
TEMPO 2904/2909 13010G25KT 4000 TSRA FEW018CB SCT030 BKN100
BECMG 2914/2916 12005KT



MET'MAP, your aeronautical weather chart ! - Copyright ORBIFLY December 2007 - Disclaimer

ORBIFLY MET'MAP TEAM :

Programming & Development : Alexandra Zaïnal
Concept & original design : Baudouin d'Aumeries
Assistance for programming : Marc-Olivier Méhu
Technical & hardware support : Manuel Goepfert

Contact : metmap@orbifly.com




SOURCES & CREDITS :

   NOAA       Earth
Advisory